Green Power — P3UZ9 — position and weather

sailwx.info

Track history (hours):
 
Tides and Currents Weather Stations Pressure Air Temp Water Temp Dewpoint Dewpoint Depression Visibility Wind Speed Wind Dir Waves Ship Positions

Green Power

Last reported at 2014-Jul-07 01:14 UTC. Time now 2014-Oct-25 15:17 UTC.
Position N 31°35' E 121°28'.
Warning: this ship's position is months out of date.

Length 235 m; draft 6.4 m.

Type: Cargo ship. MMSI: 210071000.

Date/timePositionNaut miles runAvg speedWind from/ knotsBaromVisibWave heightAir tempDewpointWater temp
2014-Jul-07 01:14N 31°35' E 121°28'0 0.0
2014-Jul-06 23:08N 31°35' E 121°28'0 0.0
2014-Jul-06 22:32N 31°35' E 121°28'0 0.0
2014-Jul-06 20:32N 31°35' E 121°28'0 0.0
2014-Jul-06 19:14N 31°35' E 121°28'0 0.0
2014-Jul-06 18:32N 31°35' E 121°28'0 0.0
2014-Jul-06 17:32N 31°35' E 121°28'0 0.0
2014-Jul-06 16:32N 31°35' E 121°28'0 0.0
2014-Jul-06 15:20N 31°35' E 121°28'0 0.0
2014-Jul-06 14:14N 31°35' E 121°28'0 0.0
2014-Jul-06 13:32N 31°35' E 121°28'0 0.0
2014-Jul-06 12:32N 31°35' E 121°28'0 0.0
2014-Jul-06 11:26N 31°35' E 121°28'0 0.0
2014-Jul-06 10:26N 31°35' E 121°28'0 0.0
2014-Jul-06 09:08N 31°35' E 121°28'0 0.0
2014-Jul-06 08:32N 31°35' E 121°28'0 0.0
2014-Jul-06 07:32N 31°35' E 121°28'0 0.0
2014-Jul-06 06:26N 31°35' E 121°28'0 0.0
2014-Jul-06 05:32N 31°35' E 121°28'0 0.0
2014-Jul-06 04:08N 31°35' E 121°28'  
2014-Jul-03 02:16N 31°35' E 121°28'0 0.0
2014-Jul-03 01:28N 31°35' E 121°28'0 0.0
2014-Jul-03 00:16N 31°35' E 121°28'0 0.0
2014-Jul-02 23:16N 31°35' E 121°28'0 0.0
2014-Jul-02 22:22N 31°35' E 121°28'0 0.0
2014-Jul-02 21:28N 31°35' E 121°28'0 0.0
2014-Jul-02 20:10N 31°35' E 121°28'0 0.0
2014-Jul-02 19:04N 31°35' E 121°28'0 0.0
2014-Jul-02 18:22N 31°35' E 121°28'0 0.0
2014-Jul-02 17:22N 31°35' E 121°28'0 0.0
2014-Jul-02 16:28N 31°35' E 121°28'0 0.0
2014-Jul-02 15:28N 31°35' E 121°28'0 0.0
2014-Jul-02 14:04N 31°35' E 121°28'0 0.0
2014-Jul-02 13:22N 31°35' E 121°28'0 0.0
2014-Jul-02 12:16N 31°35' E 121°28'0 0.0
2014-Jul-02 11:28N 31°35' E 121°28'0 0.0
2014-Jul-02 10:33N 31°35' E 121°28'3 3.4
2014-Jul-02 09:33N 31°33' E 121°31'5 4.5
2014-Jul-02 08:32N 31°30' E 121°34'6 6.4
2014-Jul-02 07:33N 31°29' E 121°27'1010.2
2014-Jul-02 06:33N 31°23' E 121°36'10 9.6
2014-Jul-02 05:33N 31°17' E 121°45'2712.2
2014-Jul-02 03:19N 31°03' E 122°13'8 9.3
2014-Jul-02 02:29N 31°02' E 122°22'1111.5
2014-Jul-02 01:31N 30°59' E 122°34'1313.3
2014-Jul-02 00:31N 30°57' E 122°49'  
Track history (hours):
 
Tides and Currents Weather Stations Pressure Air Temp Water Temp Dewpoint Dewpoint Depression Visibility Wind Speed Wind Dir Waves Ship Positions

Green Power

Last reported at 2014-Jul-07 01:14 UTC. Time now 2014-Oct-25 15:17 UTC.
Position N 31°35' E 121°28'.
Warning: this ship's position is months out of date.

Length 235 m; draft 6.4 m.

Type: Cargo ship. MMSI: 210071000.

Date/timePositionNaut miles runAvg speedWind from/ knotsBaromVisibWave heightAir tempDewpointWater temp
2014-Jul-07 01:14N 31°35' E 121°28'0 0.0
2014-Jul-06 23:08N 31°35' E 121°28'0 0.0
2014-Jul-06 22:32N 31°35' E 121°28'0 0.0
2014-Jul-06 20:32N 31°35' E 121°28'0 0.0
2014-Jul-06 19:14N 31°35' E 121°28'0 0.0
2014-Jul-06 18:32N 31°35' E 121°28'0 0.0
2014-Jul-06 17:32N 31°35' E 121°28'0 0.0
2014-Jul-06 16:32N 31°35' E 121°28'0 0.0
2014-Jul-06 15:20N 31°35' E 121°28'0 0.0
2014-Jul-06 14:14N 31°35' E 121°28'0 0.0
2014-Jul-06 13:32N 31°35' E 121°28'0 0.0
2014-Jul-06 12:32N 31°35' E 121°28'0 0.0
2014-Jul-06 11:26N 31°35' E 121°28'0 0.0
2014-Jul-06 10:26N 31°35' E 121°28'0 0.0
2014-Jul-06 09:08N 31°35' E 121°28'0 0.0
2014-Jul-06 08:32N 31°35' E 121°28'0 0.0
2014-Jul-06 07:32N 31°35' E 121°28'0 0.0
2014-Jul-06 06:26N 31°35' E 121°28'0 0.0
2014-Jul-06 05:32N 31°35' E 121°28'0 0.0
2014-Jul-06 04:08N 31°35' E 121°28'  
2014-Jul-03 02:16N 31°35' E 121°28'0 0.0
2014-Jul-03 01:28N 31°35' E 121°28'0 0.0
2014-Jul-03 00:16N 31°35' E 121°28'0 0.0
2014-Jul-02 23:16N 31°35' E 121°28'0 0.0
2014-Jul-02 22:22N 31°35' E 121°28'0 0.0
2014-Jul-02 21:28N 31°35' E 121°28'0 0.0
2014-Jul-02 20:10N 31°35' E 121°28'0 0.0
2014-Jul-02 19:04N 31°35' E 121°28'0 0.0
2014-Jul-02 18:22N 31°35' E 121°28'0 0.0
2014-Jul-02 17:22N 31°35' E 121°28'0 0.0
2014-Jul-02 16:28N 31°35' E 121°28'0 0.0
2014-Jul-02 15:28N 31°35' E 121°28'0 0.0
2014-Jul-02 14:04N 31°35' E 121°28'0 0.0
2014-Jul-02 13:22N 31°35' E 121°28'0 0.0
2014-Jul-02 12:16N 31°35' E 121°28'0 0.0
2014-Jul-02 11:28N 31°35' E 121°28'0 0.0
2014-Jul-02 10:33N 31°35' E 121°28'3 3.4
2014-Jul-02 09:33N 31°33' E 121°31'5 4.5
2014-Jul-02 08:32N 31°30' E 121°34'6 6.4
2014-Jul-02 07:33N 31°29' E 121°27'1010.2
2014-Jul-02 06:33N 31°23' E 121°36'10 9.6
2014-Jul-02 05:33N 31°17' E 121°45'2712.2
2014-Jul-02 03:19N 31°03' E 122°13'8 9.3
2014-Jul-02 02:29N 31°02' E 122°22'1111.5
2014-Jul-02 01:31N 30°59' E 122°34'1313.3
2014-Jul-02 00:31N 30°57' E 122°49'  

Dump ship's entire track history